Insider Stock Trading History of Morgans David J Jr


The following table details the trading activities (stock purchases, stock sales, and stock option exercises) reported to the Securities and Exchange Commission (SEC) by insider Morgans David J Jr since year 2005. The trader's CIK number is 1288528. At the time of this reporting, Morgans David J Jr is the EVP-Preclinical R&D of Cytokinetics Inc . (stock ticker symbol CYTK). See this page for all insider trading activities at Cytokinetics Inc .


Stock purchases, sales, and option exercises reported by insider Morgans David J Jr since 2005.
  Trade Date   Symbol Company Name (Issuer) Trade Type     Shares       Price ($)   Value ($)
2009-10-01 CYTK Cytokinetics Inc Sale 7,500 5.21 39,060
2009-09-28 CYTK Cytokinetics Inc Sale 2,500 5.50 13,750
2009-09-21 CYTK Cytokinetics Inc Sale 7,500 4.77 35,797
2009-03-02 CYTK Cytokinetics Inc Sale 5,000 1.56 7,800
2009-02-02 CYTK Cytokinetics Inc Sale 5,000 2.14 10,700
2009-01-02 CYTK Cytokinetics Inc Sale 5,000 2.81 14,040
2008-12-01 CYTK Cytokinetics Inc Sale 5,000 2.21 11,065
2008-11-03 CYTK Cytokinetics Inc Sale 5,000 2.93 14,660
2007-09-28 CYTK Cytokinetics Inc Sale 5,000 5.09 25,450
2007-09-14 CYTK Cytokinetics Inc Sale 5,000 4.75 23,750
2007-09-14 CYTK Cytokinetics Inc Option Ex 32,000 1.20 38,400
2007-06-29 CYTK Cytokinetics Inc Sale 5,000 6.00 30,000
2007-06-15 CYTK Cytokinetics Inc Option Ex 27,500 1.20 33,000
2007-06-15 CYTK Cytokinetics Inc Sale 5,000 6.46 32,300
2007-01-16 CYTK Cytokinetics Inc Sale 5,000 8.31 41,550
2007-01-16 CYTK Cytokinetics Inc Option Ex 5,000 1.20 6,000
2006-11-15 CYTK Cytokinetics Inc Option Ex 5,000 1.20 6,000
2006-11-15 CYTK Cytokinetics Inc Sale 5,000 7.80 39,000
2006-10-13 CYTK Cytokinetics Inc Option Ex 5,000 1.20 6,000
2006-10-13 CYTK Cytokinetics Inc Sale 5,000 6.67 33,350
2006-09-15 CYTK Cytokinetics Inc Option Ex 5,000 1.20 6,000
2006-09-15 CYTK Cytokinetics Inc Sale 5,000 7.02 35,100
2006-08-18 CYTK Cytokinetics Inc Option Ex 5,000 1.20 6,000
2006-08-18 CYTK Cytokinetics Inc Sale 5,000 6.00 30,000
2006-07-26 CYTK Cytokinetics Inc Option Ex 3,490 1.20 4,188
2006-07-26 CYTK Cytokinetics Inc Sale 3,490 6.00 20,940
2006-07-25 CYTK Cytokinetics Inc Sale 1,510 6.00 9,060
2006-07-25 CYTK Cytokinetics Inc Option Ex 1,510 1.20 1,812
2006-05-15 CYTK Cytokinetics Inc Option Ex 5,000 1.20 6,000
2006-05-15 CYTK Cytokinetics Inc Sale 5,000 7.03 35,150
2006-04-17 CYTK Cytokinetics Inc Sale 5,000 7.34 36,700
2006-04-17 CYTK Cytokinetics Inc Option Ex 5,000 1.00 5,000
2006-03-15 CYTK Cytokinetics Inc Sale 5,000 7.01 35,050
2006-03-15 CYTK Cytokinetics Inc Option Ex 5,000 1.00 5,000
2006-02-15 CYTK Cytokinetics Inc Option Ex 5,000 1.00 5,000
2006-02-15 CYTK Cytokinetics Inc Sale 5,000 7.20 36,000
2005-11-02 CYTK Cytokinetics Inc Sale 12,500 7.44 93,037
2005-11-03 CYTK Cytokinetics Inc Sale 22,500 7.80 175,545
2005-11-02 CYTK Cytokinetics Inc Sale 12,500 7.44 93,037
2005-11-03 CYTK Cytokinetics Inc Sale 22,500 7.80 175,545

Insider trading activities including stock purchases, stock sales, and option exercises listed in the above table cannot be completely guaranteed as to their accuracy. For more information regarding the trades made by Morgans David J Jr (EVP-Preclinical R&D of Cytokinetics Inc at the time of this reporting) see the Securities and Exchange Commission (SEC) website.